sensor_id;sensor_type;location;lat;lon;timestamp;P1;durP1;ratioP1;P2;durP2;ratioP2
54263;SDS011;40178;53.042;6.406;2023-01-29T00:01:51;15.63;;;8.45;;
54263;SDS011;40178;53.042;6.406;2023-01-29T00:04:17;16.38;;;8.60;;
54263;SDS011;40178;53.042;6.406;2023-01-29T00:06:43;20.67;;;9.55;;
54263;SDS011;40178;53.042;6.406;2023-01-29T00:09:09;17.70;;;8.82;;
54263;SDS011;40178;53.042;6.406;2023-01-29T00:11:35;18.25;;;8.93;;
54263;SDS011;40178;53.042;6.406;2023-01-29T00:14:01;27.75;;;14.90;;
54263;SDS011;40178;53.042;6.406;2023-01-29T00:16:27;18.63;;;10.30;;
54263;SDS011;40178;53.042;6.406;2023-01-29T00:18:52;21.50;;;10.85;;
54263;SDS011;40178;53.042;6.406;2023-01-29T00:21:19;19.77;;;10.98;;
54263;SDS011;40178;53.042;6.406;2023-01-29T00:23:49;22.73;;;13.00;;
54263;SDS011;40178;53.042;6.406;2023-01-29T00:26:15;21.35;;;10.93;;
54263;SDS011;40178;53.042;6.406;2023-01-29T00:28:41;21.30;;;11.52;;
54263;SDS011;40178;53.042;6.406;2023-01-29T00:31:08;24.25;;;12.60;;
54263;SDS011;40178;53.042;6.406;2023-01-29T00:33:35;22.00;;;11.65;;
54263;SDS011;40178;53.042;6.406;2023-01-29T00:36:04;20.75;;;12.40;;
54263;SDS011;40178;53.042;6.406;2023-01-29T00:38:31;16.55;;;9.88;;
54263;SDS011;40178;53.042;6.406;2023-01-29T00:41:03;17.58;;;9.90;;
54263;SDS011;40178;53.042;6.406;2023-01-29T00:43:48;19.55;;;11.13;;
54263;SDS011;40178;53.042;6.406;2023-01-29T00:46:32;18.73;;;10.38;;
54263;SDS011;40178;53.042;6.406;2023-01-29T00:48:58;19.35;;;9.93;;
54263;SDS011;40178;53.042;6.406;2023-01-29T00:51:23;18.52;;;10.85;;
54263;SDS011;40178;53.042;6.406;2023-01-29T00:53:49;19.17;;;10.35;;
54263;SDS011;40178;53.042;6.406;2023-01-29T00:56:15;18.95;;;10.25;;
54263;SDS011;40178;53.042;6.406;2023-01-29T00:58:40;17.83;;;9.52;;
54263;SDS011;40178;53.042;6.406;2023-01-29T01:01:06;17.48;;;9.88;;
54263;SDS011;40178;53.042;6.406;2023-01-29T01:03:31;16.80;;;8.68;;
54263;SDS011;40178;53.042;6.406;2023-01-29T01:06:05;18.35;;;9.57;;
54263;SDS011;40178;53.042;6.406;2023-01-29T01:08:32;17.02;;;9.57;;
54263;SDS011;40178;53.042;6.406;2023-01-29T01:11:16;18.02;;;9.73;;
54263;SDS011;40178;53.042;6.406;2023-01-29T01:13:42;19.10;;;10.70;;
54263;SDS011;40178;53.042;6.406;2023-01-29T01:16:08;20.63;;;11.00;;
54263;SDS011;40178;53.042;6.406;2023-01-29T01:18:38;21.00;;;11.32;;
54263;SDS011;40178;53.042;6.406;2023-01-29T01:21:04;23.58;;;11.05;;
54263;SDS011;40178;53.042;6.406;2023-01-29T01:23:30;23.73;;;11.57;;
54263;SDS011;40178;53.042;6.406;2023-01-29T01:25:56;20.23;;;10.95;;
54263;SDS011;40178;53.042;6.406;2023-01-29T01:28:21;23.33;;;12.68;;
54263;SDS011;40178;53.042;6.406;2023-01-29T01:30:47;21.88;;;12.40;;
54263;SDS011;40178;53.042;6.406;2023-01-29T01:33:12;22.63;;;11.93;;
54263;SDS011;40178;53.042;6.406;2023-01-29T01:35:38;24.98;;;12.60;;
54263;SDS011;40178;53.042;6.406;2023-01-29T01:38:05;23.60;;;13.02;;
54263;SDS011;40178;53.042;6.406;2023-01-29T01:40:30;24.88;;;12.93;;
54263;SDS011;40178;53.042;6.406;2023-01-29T01:42:57;26.23;;;14.05;;
54263;SDS011;40178;53.042;6.406;2023-01-29T01:45:32;24.83;;;13.75;;
54263;SDS011;40178;53.042;6.406;2023-01-29T01:50:38;25.95;;;14.75;;
54263;SDS011;40178;53.042;6.406;2023-01-29T01:53:13;26.17;;;14.63;;
54263;SDS011;40178;53.042;6.406;2023-01-29T01:55:45;23.73;;;13.25;;
54263;SDS011;40178;53.042;6.406;2023-01-29T01:58:20;23.40;;;14.40;;
54263;SDS011;40178;53.042;6.406;2023-01-29T02:00:52;27.33;;;13.35;;
54263;SDS011;40178;53.042;6.406;2023-01-29T02:03:18;27.60;;;14.20;;
54263;SDS011;40178;53.042;6.406;2023-01-29T02:06:05;26.83;;;14.35;;
54263;SDS011;40178;53.042;6.406;2023-01-29T02:11:38;22.67;;;11.95;;
54263;SDS011;40178;53.042;6.406;2023-01-29T02:14:03;24.67;;;13.43;;
54263;SDS011;40178;53.042;6.406;2023-01-29T02:16:29;22.92;;;13.10;;
54263;SDS011;40178;53.042;6.406;2023-01-29T02:18:57;25.35;;;12.88;;
54263;SDS011;40178;53.042;6.406;2023-01-29T02:27:23;19.73;;;12.30;;
54263;SDS011;40178;53.042;6.406;2023-01-29T02:30:23;21.83;;;14.07;;
54263;SDS011;40178;53.042;6.406;2023-01-29T02:32:54;21.38;;;12.18;;
54263;SDS011;40178;53.042;6.406;2023-01-29T02:40:45;22.20;;;13.27;;
54263;SDS011;40178;53.042;6.406;2023-01-29T02:46:14;21.05;;;12.85;;
54263;SDS011;40178;53.042;6.406;2023-01-29T02:51:28;20.83;;;12.27;;
54263;SDS011;40178;53.042;6.406;2023-01-29T02:54:08;22.17;;;12.73;;
54263;SDS011;40178;53.042;6.406;2023-01-29T02:56:56;22.38;;;13.23;;
54263;SDS011;40178;53.042;6.406;2023-01-29T02:59:35;24.15;;;12.85;;
54263;SDS011;40178;53.042;6.406;2023-01-29T03:02:07;24.55;;;13.55;;
54263;SDS011;40178;53.042;6.406;2023-01-29T03:04:39;23.90;;;13.32;;
54263;SDS011;40178;53.042;6.406;2023-01-29T03:07:14;23.88;;;11.75;;
54263;SDS011;40178;53.042;6.406;2023-01-29T03:10:03;19.98;;;11.90;;
54263;SDS011;40178;53.042;6.406;2023-01-29T03:13:05;24.05;;;13.45;;
54263;SDS011;40178;53.042;6.406;2023-01-29T03:16:30;23.13;;;13.50;;
54263;SDS011;40178;53.042;6.406;2023-01-29T03:18:37;20.88;;;13.25;;
54263;SDS011;40178;53.042;6.406;2023-01-29T03:21:11;23.83;;;12.73;;
54263;SDS011;40178;53.042;6.406;2023-01-29T03:24:03;26.55;;;12.45;;
54263;SDS011;40178;53.042;6.406;2023-01-29T03:26:50;23.65;;;12.70;;
54263;SDS011;40178;53.042;6.406;2023-01-29T03:29:35;25.08;;;12.30;;
54263;SDS011;40178;53.042;6.406;2023-01-29T03:32:22;23.90;;;12.77;;
54263;SDS011;40178;53.042;6.406;2023-01-29T03:34:53;25.25;;;12.32;;
54263;SDS011;40178;53.042;6.406;2023-01-29T03:39:57;23.65;;;12.63;;
54263;SDS011;40178;53.042;6.406;2023-01-29T03:45:20;24.13;;;13.32;;
54263;SDS011;40178;53.042;6.406;2023-01-29T03:56:16;24.70;;;13.07;;
54263;SDS011;40178;53.042;6.406;2023-01-29T03:59:02;24.15;;;12.52;;
54263;SDS011;40178;53.042;6.406;2023-01-29T04:06:41;25.02;;;13.43;;
54263;SDS011;40178;53.042;6.406;2023-01-29T04:09:13;23.45;;;12.88;;
54263;SDS011;40178;53.042;6.406;2023-01-29T04:11:52;24.52;;;12.55;;
54263;SDS011;40178;53.042;6.406;2023-01-29T04:14:23;24.05;;;11.98;;
54263;SDS011;40178;53.042;6.406;2023-01-29T04:16:51;24.70;;;12.88;;
54263;SDS011;40178;53.042;6.406;2023-01-29T04:19:19;23.55;;;12.68;;
54263;SDS011;40178;53.042;6.406;2023-01-29T04:21:44;25.08;;;13.07;;
54263;SDS011;40178;53.042;6.406;2023-01-29T04:24:12;21.15;;;12.50;;
54263;SDS011;40178;53.042;6.406;2023-01-29T04:26:50;25.17;;;13.27;;
54263;SDS011;40178;53.042;6.406;2023-01-29T04:32:12;21.83;;;12.07;;
54263;SDS011;40178;53.042;6.406;2023-01-29T04:37:21;25.23;;;11.77;;
54263;SDS011;40178;53.042;6.406;2023-01-29T04:40:08;20.83;;;11.35;;
54263;SDS011;40178;53.042;6.406;2023-01-29T04:42:56;23.60;;;11.18;;
54263;SDS011;40178;53.042;6.406;2023-01-29T04:48:31;22.85;;;11.18;;
54263;SDS011;40178;53.042;6.406;2023-01-29T04:51:02;20.65;;;10.55;;
54263;SDS011;40178;53.042;6.406;2023-01-29T04:55:57;21.73;;;11.13;;
54263;SDS011;40178;53.042;6.406;2023-01-29T05:01:05;21.70;;;11.30;;
54263;SDS011;40178;53.042;6.406;2023-01-29T05:03:34;21.60;;;11.05;;
54263;SDS011;40178;53.042;6.406;2023-01-29T05:06:02;23.40;;;11.70;;
54263;SDS011;40178;53.042;6.406;2023-01-29T05:08:29;20.77;;;10.50;;
54263;SDS011;40178;53.042;6.406;2023-01-29T05:10:58;20.40;;;10.80;;
54263;SDS011;40178;53.042;6.406;2023-01-29T05:13:24;24.98;;;11.70;;
54263;SDS011;40178;53.042;6.406;2023-01-29T05:18:33;21.05;;;12.32;;
54263;SDS011;40178;53.042;6.406;2023-01-29T05:21:00;23.08;;;12.85;;
54263;SDS011;40178;53.042;6.406;2023-01-29T05:23:29;21.73;;;12.43;;
54263;SDS011;40178;53.042;6.406;2023-01-29T05:25:55;24.27;;;13.38;;
54263;SDS011;40178;53.042;6.406;2023-01-29T05:28:21;25.20;;;14.13;;
54263;SDS011;40178;53.042;6.406;2023-01-29T05:30:48;24.90;;;13.77;;
54263;SDS011;40178;53.042;6.406;2023-01-29T05:33:16;27.58;;;15.18;;
54263;SDS011;40178;53.042;6.406;2023-01-29T05:35:47;30.08;;;15.75;;
54263;SDS011;40178;53.042;6.406;2023-01-29T05:38:14;24.98;;;13.55;;
54263;SDS011;40178;53.042;6.406;2023-01-29T05:40:41;29.35;;;16.75;;
54263;SDS011;40178;53.042;6.406;2023-01-29T05:43:17;30.52;;;16.50;;
54263;SDS011;40178;53.042;6.406;2023-01-29T05:45:51;35.10;;;17.58;;
54263;SDS011;40178;53.042;6.406;2023-01-29T05:48:24;32.83;;;17.13;;
54263;SDS011;40178;53.042;6.406;2023-01-29T05:50:52;32.83;;;16.33;;
54263;SDS011;40178;53.042;6.406;2023-01-29T05:53:18;31.70;;;16.38;;
54263;SDS011;40178;53.042;6.406;2023-01-29T05:55:47;33.75;;;17.77;;
54263;SDS011;40178;53.042;6.406;2023-01-29T05:58:13;35.33;;;17.85;;
54263;SDS011;40178;53.042;6.406;2023-01-29T06:00:38;35.22;;;17.92;;
54263;SDS011;40178;53.042;6.406;2023-01-29T06:03:05;36.38;;;18.55;;
54263;SDS011;40178;53.042;6.406;2023-01-29T06:05:30;35.75;;;18.05;;
54263;SDS011;40178;53.042;6.406;2023-01-29T06:07:56;37.92;;;19.95;;
54263;SDS011;40178;53.042;6.406;2023-01-29T06:10:22;35.75;;;19.20;;
54263;SDS011;40178;53.042;6.406;2023-01-29T06:12:48;35.92;;;19.23;;
54263;SDS011;40178;53.042;6.406;2023-01-29T06:15:13;36.92;;;18.35;;
54263;SDS011;40178;53.042;6.406;2023-01-29T06:17:40;36.33;;;19.63;;
54263;SDS011;40178;53.042;6.406;2023-01-29T06:20:06;34.58;;;18.95;;
54263;SDS011;40178;53.042;6.406;2023-01-29T06:22:32;33.83;;;18.63;;
54263;SDS011;40178;53.042;6.406;2023-01-29T06:24:58;35.85;;;19.40;;
54263;SDS011;40178;53.042;6.406;2023-01-29T06:27:23;33.88;;;18.70;;
54263;SDS011;40178;53.042;6.406;2023-01-29T06:29:49;32.63;;;18.80;;
54263;SDS011;40178;53.042;6.406;2023-01-29T06:32:14;36.03;;;19.98;;
54263;SDS011;40178;53.042;6.406;2023-01-29T06:34:40;31.40;;;18.30;;
54263;SDS011;40178;53.042;6.406;2023-01-29T06:37:05;35.50;;;19.65;;
54263;SDS011;40178;53.042;6.406;2023-01-29T06:39:32;29.48;;;16.98;;
54263;SDS011;40178;53.042;6.406;2023-01-29T06:41:58;33.53;;;17.98;;
54263;SDS011;40178;53.042;6.406;2023-01-29T06:44:23;31.08;;;17.20;;
54263;SDS011;40178;53.042;6.406;2023-01-29T06:46:49;36.78;;;17.58;;
54263;SDS011;40178;53.042;6.406;2023-01-29T06:49:14;32.75;;;17.50;;
54263;SDS011;40178;53.042;6.406;2023-01-29T06:51:40;33.15;;;17.45;;
54263;SDS011;40178;53.042;6.406;2023-01-29T06:54:06;33.55;;;17.63;;
54263;SDS011;40178;53.042;6.406;2023-01-29T06:56:33;33.45;;;18.23;;
54263;SDS011;40178;53.042;6.406;2023-01-29T06:58:59;30.80;;;16.35;;
54263;SDS011;40178;53.042;6.406;2023-01-29T07:01:24;35.00;;;19.05;;
54263;SDS011;40178;53.042;6.406;2023-01-29T07:03:50;35.53;;;18.58;;
54263;SDS011;40178;53.042;6.406;2023-01-29T07:06:16;35.63;;;19.58;;
54263;SDS011;40178;53.042;6.406;2023-01-29T07:08:42;37.00;;;18.90;;
54263;SDS011;40178;53.042;6.406;2023-01-29T07:11:08;35.50;;;18.83;;
54263;SDS011;40178;53.042;6.406;2023-01-29T07:13:34;37.60;;;19.63;;
54263;SDS011;40178;53.042;6.406;2023-01-29T07:16:00;43.08;;;21.92;;
54263;SDS011;40178;53.042;6.406;2023-01-29T07:18:26;44.03;;;20.27;;
54263;SDS011;40178;53.042;6.406;2023-01-29T07:20:52;39.63;;;21.88;;
54263;SDS011;40178;53.042;6.406;2023-01-29T07:23:18;38.53;;;21.30;;
54263;SDS011;40178;53.042;6.406;2023-01-29T07:25:44;40.30;;;21.92;;
54263;SDS011;40178;53.042;6.406;2023-01-29T07:28:10;40.38;;;21.60;;
54263;SDS011;40178;53.042;6.406;2023-01-29T07:30:35;39.28;;;21.27;;
54263;SDS011;40178;53.042;6.406;2023-01-29T07:33:02;34.63;;;19.73;;
54263;SDS011;40178;53.042;6.406;2023-01-29T07:35:29;33.67;;;20.23;;
54263;SDS011;40178;53.042;6.406;2023-01-29T07:37:55;34.83;;;20.40;;
54263;SDS011;40178;53.042;6.406;2023-01-29T07:40:21;39.25;;;21.27;;
54263;SDS011;40178;53.042;6.406;2023-01-29T07:42:46;39.63;;;20.95;;
54263;SDS011;40178;53.042;6.406;2023-01-29T07:45:12;38.20;;;21.08;;
54263;SDS011;40178;53.042;6.406;2023-01-29T07:47:38;38.22;;;20.63;;
54263;SDS011;40178;53.042;6.406;2023-01-29T07:50:03;40.40;;;22.80;;
54263;SDS011;40178;53.042;6.406;2023-01-29T07:52:30;36.47;;;20.85;;
54263;SDS011;40178;53.042;6.406;2023-01-29T07:54:57;37.30;;;19.92;;
54263;SDS011;40178;53.042;6.406;2023-01-29T07:57:22;38.58;;;20.05;;
54263;SDS011;40178;53.042;6.406;2023-01-29T07:59:48;39.30;;;19.85;;
54263;SDS011;40178;53.042;6.406;2023-01-29T08:02:14;40.55;;;21.58;;
54263;SDS011;40178;53.042;6.406;2023-01-29T08:04:40;40.78;;;20.38;;
54263;SDS011;40178;53.042;6.406;2023-01-29T08:07:05;39.58;;;21.52;;
54263;SDS011;40178;53.042;6.406;2023-01-29T08:09:33;40.22;;;20.58;;
54263;SDS011;40178;53.042;6.406;2023-01-29T08:11:59;36.15;;;19.77;;
54263;SDS011;40178;53.042;6.406;2023-01-29T08:14:24;35.60;;;19.55;;
54263;SDS011;40178;53.042;6.406;2023-01-29T08:16:50;34.78;;;20.48;;
54263;SDS011;40178;53.042;6.406;2023-01-29T08:19:16;37.15;;;20.48;;
54263;SDS011;40178;53.042;6.406;2023-01-29T08:21:42;34.90;;;18.65;;
54263;SDS011;40178;53.042;6.406;2023-01-29T08:24:08;33.80;;;19.20;;
54263;SDS011;40178;53.042;6.406;2023-01-29T08:26:33;39.38;;;20.30;;
54263;SDS011;40178;53.042;6.406;2023-01-29T08:28:59;35.08;;;19.42;;
54263;SDS011;40178;53.042;6.406;2023-01-29T08:31:24;34.22;;;19.80;;
54263;SDS011;40178;53.042;6.406;2023-01-29T08:33:52;36.42;;;19.10;;
54263;SDS011;40178;53.042;6.406;2023-01-29T08:36:17;36.47;;;19.60;;
54263;SDS011;40178;53.042;6.406;2023-01-29T08:38:43;35.97;;;18.70;;
54263;SDS011;40178;53.042;6.406;2023-01-29T08:41:09;35.40;;;19.50;;
54263;SDS011;40178;53.042;6.406;2023-01-29T08:43:34;33.38;;;18.58;;
54263;SDS011;40178;53.042;6.406;2023-01-29T08:46:02;36.75;;;19.63;;
54263;SDS011;40178;53.042;6.406;2023-01-29T08:48:29;35.45;;;18.65;;
54263;SDS011;40178;53.042;6.406;2023-01-29T08:50:58;34.90;;;18.67;;
54263;SDS011;40178;53.042;6.406;2023-01-29T08:53:24;36.75;;;20.52;;
54263;SDS011;40178;53.042;6.406;2023-01-29T08:55:50;38.72;;;20.00;;
54263;SDS011;40178;53.042;6.406;2023-01-29T08:58:16;37.30;;;19.48;;
54263;SDS011;40178;53.042;6.406;2023-01-29T09:00:42;35.33;;;18.90;;
54263;SDS011;40178;53.042;6.406;2023-01-29T09:03:08;39.13;;;19.00;;
54263;SDS011;40178;53.042;6.406;2023-01-29T09:05:37;35.60;;;19.23;;
54263;SDS011;40178;53.042;6.406;2023-01-29T09:08:05;35.60;;;19.85;;
54263;SDS011;40178;53.042;6.406;2023-01-29T09:10:31;36.28;;;20.65;;
54263;SDS011;40178;53.042;6.406;2023-01-29T09:12:57;45.80;;;22.92;;
54263;SDS011;40178;53.042;6.406;2023-01-29T09:15:22;43.80;;;21.80;;
54263;SDS011;40178;53.042;6.406;2023-01-29T09:17:48;39.08;;;20.77;;
54263;SDS011;40178;53.042;6.406;2023-01-29T09:20:14;35.35;;;19.25;;
54263;SDS011;40178;53.042;6.406;2023-01-29T09:22:40;39.53;;;20.05;;
54263;SDS011;40178;53.042;6.406;2023-01-29T09:25:06;37.60;;;21.00;;
54263;SDS011;40178;53.042;6.406;2023-01-29T09:27:32;41.67;;;19.60;;
54263;SDS011;40178;53.042;6.406;2023-01-29T09:29:58;35.95;;;21.20;;
54263;SDS011;40178;53.042;6.406;2023-01-29T09:32:23;42.47;;;20.65;;
54263;SDS011;40178;53.042;6.406;2023-01-29T09:34:49;36.28;;;19.42;;
54263;SDS011;40178;53.042;6.406;2023-01-29T09:37:15;37.65;;;20.48;;
54263;SDS011;40178;53.042;6.406;2023-01-29T09:39:47;38.95;;;20.70;;
54263;SDS011;40178;53.042;6.406;2023-01-29T09:42:23;36.72;;;18.05;;
54263;SDS011;40178;53.042;6.406;2023-01-29T09:45:11;33.30;;;18.10;;
54263;SDS011;40178;53.042;6.406;2023-01-29T09:47:40;36.22;;;19.25;;
54263;SDS011;40178;53.042;6.406;2023-01-29T09:50:19;36.40;;;18.80;;
54263;SDS011;40178;53.042;6.406;2023-01-29T09:52:54;42.85;;;20.92;;
54263;SDS011;40178;53.042;6.406;2023-01-29T09:55:38;35.20;;;19.65;;
54263;SDS011;40178;53.042;6.406;2023-01-29T09:58:13;39.08;;;19.63;;
54263;SDS011;40178;53.042;6.406;2023-01-29T10:00:47;33.53;;;18.80;;
54263;SDS011;40178;53.042;6.406;2023-01-29T10:06:23;34.33;;;19.80;;
54263;SDS011;40178;53.042;6.406;2023-01-29T10:15:00;39.15;;;19.17;;
54263;SDS011;40178;53.042;6.406;2023-01-29T10:23:20;32.58;;;17.83;;
54263;SDS011;40178;53.042;6.406;2023-01-29T10:25:56;34.05;;;16.52;;
54263;SDS011;40178;53.042;6.406;2023-01-29T10:31:08;38.88;;;18.02;;
54263;SDS011;40178;53.042;6.406;2023-01-29T10:34:00;35.13;;;17.15;;
54263;SDS011;40178;53.042;6.406;2023-01-29T10:36:43;46.42;;;20.33;;
54263;SDS011;40178;53.042;6.406;2023-01-29T10:39:13;39.47;;;20.95;;
54263;SDS011;40178;53.042;6.406;2023-01-29T10:42:03;39.08;;;20.17;;
54263;SDS011;40178;53.042;6.406;2023-01-29T10:44:37;35.55;;;18.90;;
54263;SDS011;40178;53.042;6.406;2023-01-29T10:52:55;41.08;;;20.05;;
54263;SDS011;40178;53.042;6.406;2023-01-29T11:01:10;40.03;;;21.58;;
54263;SDS011;40178;53.042;6.406;2023-01-29T11:03:35;45.05;;;20.67;;
54263;SDS011;40178;53.042;6.406;2023-01-29T11:09:04;43.28;;;21.73;;
54263;SDS011;40178;53.042;6.406;2023-01-29T11:14:13;44.08;;;21.42;;
54263;SDS011;40178;53.042;6.406;2023-01-29T11:16:43;42.05;;;20.92;;
54263;SDS011;40178;53.042;6.406;2023-01-29T11:19:11;41.58;;;20.85;;
54263;SDS011;40178;53.042;6.406;2023-01-29T11:24:22;41.25;;;20.00;;
54263;SDS011;40178;53.042;6.406;2023-01-29T11:26:49;42.22;;;21.17;;
54263;SDS011;40178;53.042;6.406;2023-01-29T11:34:56;45.03;;;19.77;;
54263;SDS011;40178;53.042;6.406;2023-01-29T11:37:21;38.53;;;19.92;;
54263;SDS011;40178;53.042;6.406;2023-01-29T11:39:47;44.97;;;21.40;;
54263;SDS011;40178;53.042;6.406;2023-01-29T11:42:18;44.08;;;19.25;;
54263;SDS011;40178;53.042;6.406;2023-01-29T11:44:44;44.08;;;21.77;;
54263;SDS011;40178;53.042;6.406;2023-01-29T11:47:25;40.15;;;18.77;;
54263;SDS011;40178;53.042;6.406;2023-01-29T11:49:53;47.55;;;21.00;;
54263;SDS011;40178;53.042;6.406;2023-01-29T11:52:21;41.53;;;19.52;;
54263;SDS011;40178;53.042;6.406;2023-01-29T11:54:56;38.40;;;19.92;;
54263;SDS011;40178;53.042;6.406;2023-01-29T11:57:29;36.97;;;19.65;;
54263;SDS011;40178;53.042;6.406;2023-01-29T12:00:02;38.30;;;18.77;;
54263;SDS011;40178;53.042;6.406;2023-01-29T12:02:32;40.15;;;18.35;;
54263;SDS011;40178;53.042;6.406;2023-01-29T12:05:13;44.83;;;19.35;;
54263;SDS011;40178;53.042;6.406;2023-01-29T12:07:44;40.25;;;19.08;;
54263;SDS011;40178;53.042;6.406;2023-01-29T12:15:44;36.83;;;18.27;;
54263;SDS011;40178;53.042;6.406;2023-01-29T12:21:35;36.22;;;18.92;;
54263;SDS011;40178;53.042;6.406;2023-01-29T12:26:34;35.97;;;19.02;;
54263;SDS011;40178;53.042;6.406;2023-01-29T12:32:05;37.33;;;18.98;;
54263;SDS011;40178;53.042;6.406;2023-01-29T12:34:54;40.05;;;20.10;;
54263;SDS011;40178;53.042;6.406;2023-01-29T12:37:44;38.17;;;20.13;;
54263;SDS011;40178;53.042;6.406;2023-01-29T12:40:13;40.67;;;20.20;;
54263;SDS011;40178;53.042;6.406;2023-01-29T12:42:40;34.50;;;18.52;;
54263;SDS011;40178;53.042;6.406;2023-01-29T12:45:14;39.80;;;19.60;;
54263;SDS011;40178;53.042;6.406;2023-01-29T12:47:44;39.40;;;19.40;;
54263;SDS011;40178;53.042;6.406;2023-01-29T12:50:16;37.92;;;18.75;;
54263;SDS011;40178;53.042;6.406;2023-01-29T12:52:59;38.65;;;19.65;;
54263;SDS011;40178;53.042;6.406;2023-01-29T12:58:02;40.20;;;19.60;;
54263;SDS011;40178;53.042;6.406;2023-01-29T13:00:37;44.90;;;19.58;;
54263;SDS011;40178;53.042;6.406;2023-01-29T13:03:16;41.53;;;19.88;;
54263;SDS011;40178;53.042;6.406;2023-01-29T13:05:58;36.80;;;19.02;;
54263;SDS011;40178;53.042;6.406;2023-01-29T13:08:31;43.92;;;20.98;;
54263;SDS011;40178;53.042;6.406;2023-01-29T13:11:05;42.85;;;19.50;;
54263;SDS011;40178;53.042;6.406;2023-01-29T13:13:43;40.53;;;20.10;;
54263;SDS011;40178;53.042;6.406;2023-01-29T13:16:16;38.67;;;18.63;;
54263;SDS011;40178;53.042;6.406;2023-01-29T13:18:52;37.40;;;17.75;;
54263;SDS011;40178;53.042;6.406;2023-01-29T13:21:25;33.28;;;18.40;;
54263;SDS011;40178;53.042;6.406;2023-01-29T13:23:59;38.65;;;17.98;;
54263;SDS011;40178;53.042;6.406;2023-01-29T13:26:28;38.58;;;18.75;;
54263;SDS011;40178;53.042;6.406;2023-01-29T13:28:55;33.83;;;18.38;;
54263;SDS011;40178;53.042;6.406;2023-01-29T13:31:29;36.47;;;18.50;;
54263;SDS011;40178;53.042;6.406;2023-01-29T13:34:20;31.98;;;17.55;;
54263;SDS011;40178;53.042;6.406;2023-01-29T13:37:17;39.30;;;17.50;;
54263;SDS011;40178;53.042;6.406;2023-01-29T13:40:00;34.30;;;18.00;;
54263;SDS011;40178;53.042;6.406;2023-01-29T13:42:45;34.10;;;17.15;;
54263;SDS011;40178;53.042;6.406;2023-01-29T13:45:20;36.00;;;17.95;;
54263;SDS011;40178;53.042;6.406;2023-01-29T13:47:51;35.22;;;18.63;;
54263;SDS011;40178;53.042;6.406;2023-01-29T13:52:53;39.28;;;18.55;;
54263;SDS011;40178;53.042;6.406;2023-01-29T13:55:28;37.03;;;19.70;;
54263;SDS011;40178;53.042;6.406;2023-01-29T13:58:01;38.10;;;18.27;;
54263;SDS011;40178;53.042;6.406;2023-01-29T14:10:39;37.90;;;19.20;;
54263;SDS011;40178;53.042;6.406;2023-01-29T14:15:45;40.47;;;20.33;;
54263;SDS011;40178;53.042;6.406;2023-01-29T14:18:31;38.58;;;20.13;;
54263;SDS011;40178;53.042;6.406;2023-01-29T14:21:02;39.95;;;20.23;;
54263;SDS011;40178;53.042;6.406;2023-01-29T14:23:29;39.85;;;20.67;;
54263;SDS011;40178;53.042;6.406;2023-01-29T14:26:27;36.15;;;19.88;;
54263;SDS011;40178;53.042;6.406;2023-01-29T14:28:58;43.15;;;22.30;;
54263;SDS011;40178;53.042;6.406;2023-01-29T14:31:28;39.67;;;20.90;;
54263;SDS011;40178;53.042;6.406;2023-01-29T14:34:03;43.30;;;22.52;;
54263;SDS011;40178;53.042;6.406;2023-01-29T14:36:38;38.88;;;20.70;;
54263;SDS011;40178;53.042;6.406;2023-01-29T14:39:28;40.78;;;21.67;;
54263;SDS011;40178;53.042;6.406;2023-01-29T14:41:58;38.92;;;21.73;;
54263;SDS011;40178;53.042;6.406;2023-01-29T14:49:57;41.17;;;22.05;;
54263;SDS011;40178;53.042;6.406;2023-01-29T14:52:25;44.28;;;22.27;;
54263;SDS011;40178;53.042;6.406;2023-01-29T14:55:14;45.05;;;22.58;;
54263;SDS011;40178;53.042;6.406;2023-01-29T14:57:49;43.63;;;23.00;;
54263;SDS011;40178;53.042;6.406;2023-01-29T15:00:21;42.58;;;23.65;;
54263;SDS011;40178;53.042;6.406;2023-01-29T15:02:54;44.35;;;23.85;;
54263;SDS011;40178;53.042;6.406;2023-01-29T15:05:29;45.40;;;24.52;;
54263;SDS011;40178;53.042;6.406;2023-01-29T15:08:14;50.67;;;24.40;;
54263;SDS011;40178;53.042;6.406;2023-01-29T15:10:54;51.10;;;25.20;;
54263;SDS011;40178;53.042;6.406;2023-01-29T15:13:46;46.78;;;24.48;;
54263;SDS011;40178;53.042;6.406;2023-01-29T15:16:18;48.80;;;24.45;;
54263;SDS011;40178;53.042;6.406;2023-01-29T15:18:49;49.95;;;24.52;;
54263;SDS011;40178;53.042;6.406;2023-01-29T15:21:21;51.47;;;25.50;;
54263;SDS011;40178;53.042;6.406;2023-01-29T15:23:46;54.90;;;26.27;;
54263;SDS011;40178;53.042;6.406;2023-01-29T15:26:27;55.78;;;26.58;;
54263;SDS011;40178;53.042;6.406;2023-01-29T15:28:56;55.42;;;26.80;;
54263;SDS011;40178;53.042;6.406;2023-01-29T15:31:23;58.65;;;26.80;;
54263;SDS011;40178;53.042;6.406;2023-01-29T15:33:50;59.22;;;27.65;;
54263;SDS011;40178;53.042;6.406;2023-01-29T15:36:22;55.58;;;26.40;;
54263;SDS011;40178;53.042;6.406;2023-01-29T15:41:41;54.90;;;24.70;;
54263;SDS011;40178;53.042;6.406;2023-01-29T15:44:11;52.65;;;27.30;;
54263;SDS011;40178;53.042;6.406;2023-01-29T15:46:40;55.15;;;28.67;;
54263;SDS011;40178;53.042;6.406;2023-01-29T15:49:08;56.78;;;27.80;;
54263;SDS011;40178;53.042;6.406;2023-01-29T15:51:40;52.10;;;24.70;;
54263;SDS011;40178;53.042;6.406;2023-01-29T15:54:11;52.17;;;26.15;;
54263;SDS011;40178;53.042;6.406;2023-01-29T15:56:40;57.28;;;28.42;;
54263;SDS011;40178;53.042;6.406;2023-01-29T15:59:15;54.67;;;27.10;;
54263;SDS011;40178;53.042;6.406;2023-01-29T16:01:49;60.17;;;25.90;;
54263;SDS011;40178;53.042;6.406;2023-01-29T16:04:18;56.60;;;27.30;;
54263;SDS011;40178;53.042;6.406;2023-01-29T16:06:48;59.63;;;28.00;;
54263;SDS011;40178;53.042;6.406;2023-01-29T16:09:18;60.30;;;26.67;;
54263;SDS011;40178;53.042;6.406;2023-01-29T16:11:47;58.33;;;28.48;;
54263;SDS011;40178;53.042;6.406;2023-01-29T16:14:14;57.10;;;27.20;;
54263;SDS011;40178;53.042;6.406;2023-01-29T16:16:44;58.00;;;27.27;;
54263;SDS011;40178;53.042;6.406;2023-01-29T16:19:24;62.47;;;26.77;;
54263;SDS011;40178;53.042;6.406;2023-01-29T16:21:58;64.93;;;27.85;;
54263;SDS011;40178;53.042;6.406;2023-01-29T16:24:26;67.23;;;29.33;;
54263;SDS011;40178;53.042;6.406;2023-01-29T16:26:56;63.72;;;29.30;;
54263;SDS011;40178;53.042;6.406;2023-01-29T16:29:28;65.00;;;28.40;;
54263;SDS011;40178;53.042;6.406;2023-01-29T16:31:55;64.70;;;30.75;;
54263;SDS011;40178;53.042;6.406;2023-01-29T16:36:53;62.90;;;28.42;;
54263;SDS011;40178;53.042;6.406;2023-01-29T16:39:24;72.07;;;31.23;;
54263;SDS011;40178;53.042;6.406;2023-01-29T16:42:01;67.50;;;30.95;;
54263;SDS011;40178;53.042;6.406;2023-01-29T16:47:51;70.63;;;30.65;;
54263;SDS011;40178;53.042;6.406;2023-01-29T16:53:01;76.07;;;32.97;;
54263;SDS011;40178;53.042;6.406;2023-01-29T16:55:44;70.15;;;31.63;;
54263;SDS011;40178;53.042;6.406;2023-01-29T16:58:15;63.67;;;31.52;;
54263;SDS011;40178;53.042;6.406;2023-01-29T17:00:51;68.30;;;31.48;;
54263;SDS011;40178;53.042;6.406;2023-01-29T17:03:23;66.47;;;30.10;;
54263;SDS011;40178;53.042;6.406;2023-01-29T17:05:51;58.65;;;29.52;;
54263;SDS011;40178;53.042;6.406;2023-01-29T17:08:29;64.35;;;30.13;;
54263;SDS011;40178;53.042;6.406;2023-01-29T17:10:57;64.40;;;29.50;;
54263;SDS011;40178;53.042;6.406;2023-01-29T17:13:40;63.45;;;29.35;;